Time;durP1;ratioP1;P1;durP2;ratioP2;P2;SDS_P1;SDS_P2;PMS_P1;PMS_P2;Temp;Humidity;BMP_temperature;BMP_pressure;BME280_temperature;BME280_humidity;BME280_pressure;Samples;Min_cycle;Max_cycle;Signal;HPM_P1;HPM_P2
2024/04/09 00:01:48;;;;;;;19.17;12.32;;;;;;;18.23;78.74;100315.63;5073963;28;20040;-77
2024/04/09 00:04:53;;;;;;;12.27;8.30;;;;;;;18.26;78.56;100309.84;5074057;28;20371;-77
2024/04/09 00:08:03;;;;;;;9.55;6.47;;;;;;;18.20;78.44;100305.13;5074072;28;20044;-76
2024/04/09 00:11:20;;;;;;;12.15;6.95;;;;;;;18.10;78.93;100301.81;5073764;28;20399;-75
2024/04/09 00:14:25;;;;;;;9.02;5.57;;;;;;;18.01;79.58;100292.91;5074128;28;20055;-76
2024/04/09 00:17:34;;;;;;;8.30;5.70;;;;;;;17.92;79.69;100285.88;5073943;28;20055;-76
2024/04/09 00:20:40;;;;;;;8.98;6.10;;;;;;;17.85;80.32;100279.47;5061745;28;20055;-75
2024/04/09 00:23:44;;;;;;;12.98;5.93;;;;;;;17.74;81.56;100274.50;5073889;28;20055;-77
2024/04/09 00:26:49;;;;;;;10.82;6.38;;;;;;;17.74;81.86;100285.34;5073918;28;20047;-76
2024/04/09 00:29:54;;;;;;;11.23;5.50;;;;;;;17.84;81.68;100291.38;5073802;28;20071;-76
2024/04/09 00:33:00;;;;;;;10.30;5.78;;;;;;;17.71;82.35;100291.13;5073627;28;20059;-77
2024/04/09 00:36:05;;;;;;;10.45;5.60;;;;;;;17.84;81.72;100290.53;5073877;28;20062;-77
2024/04/09 00:39:27;;;;;;;12.38;6.38;;;;;;;17.52;83.50;100284.34;5061429;28;20055;-76
2024/04/09 00:42:32;;;;;;;6.93;4.72;;;;;;;17.49;84.06;100290.09;5073339;28;20403;-77
2024/04/09 00:45:37;;;;;;;7.78;5.15;;;;;;;17.59;84.18;100302.59;5073631;28;20051;-77
2024/04/09 00:48:44;;;;;;;10.38;5.40;;;;;;;17.60;83.82;100307.88;5082048;28;20047;-76
2024/04/09 00:51:52;;;;;;;6.68;4.90;;;;;;;17.66;83.77;100311.72;5093519;28;20105;-77
2024/04/09 00:54:58;;;;;;;8.77;5.78;;;;;;;17.52;83.37;100318.78;5093746;28;20059;-76
2024/04/09 00:58:03;;;;;;;10.00;6.07;;;;;;;17.25;83.78;100325.53;5093330;28;20518;-78
2024/04/09 01:01:13;;;;;;;10.88;6.47;;;;;;;17.34;84.24;100329.88;5081261;28;20044;-76
2024/04/09 01:04:17;;;;;;;9.98;6.45;;;;;;;17.26;84.07;100323.63;5093745;28;20379;-76
2024/04/09 01:07:22;;;;;;;10.32;6.20;;;;;;;17.18;84.97;100323.69;5093150;28;20067;-76
2024/04/09 01:10:26;;;;;;;7.30;5.68;;;;;;;17.06;84.63;100325.94;5093349;28;20044;-76
2024/04/09 01:13:31;;;;;;;9.27;6.68;;;;;;;17.12;85.22;100330.69;5093234;28;20066;-76
2024/04/09 01:16:35;;;;;;;8.07;6.53;;;;;;;17.08;85.63;100334.78;5093440;28;20047;-76
2024/04/09 01:19:39;;;;;;;9.13;6.60;;;;;;;17.07;85.96;100332.22;5082258;28;20390;-76
2024/04/09 01:22:45;;;;;;;9.70;6.55;;;;;;;17.06;85.63;100325.13;5098474;28;20098;-77
2024/04/09 01:25:51;;;;;;;9.80;8.00;;;;;;;17.10;85.69;100321.03;5095450;28;20063;-76
2024/04/09 01:28:56;;;;;;;8.48;6.30;;;;;;;17.01;86.47;100317.50;5093365;28;20047;-75
2024/04/09 01:32:00;;;;;;;8.18;6.30;;;;;;;16.97;86.89;100312.59;5093381;28;20070;-77
2024/04/09 01:35:06;;;;;;;11.68;7.15;;;;;;;17.04;86.44;100311.72;5093175;28;20048;-77
2024/04/09 01:38:11;;;;;;;9.70;7.28;;;;;;;17.06;86.49;100308.84;5081074;28;20099;-76
2024/04/09 01:41:16;;;;;;;10.02;6.47;;;;;;;17.01;86.46;100311.25;5093059;28;20055;-76
2024/04/09 01:44:21;;;;;;;10.68;7.47;;;;;;;16.96;86.68;100303.63;5080717;28;20411;-76
2024/04/09 01:47:26;;;;;;;12.15;6.30;;;;;;;16.93;87.22;100298.56;5093127;28;20110;-76
2024/04/09 01:50:31;;;;;;;9.48;6.55;;;;;;;17.02;87.11;100305.63;5092972;28;20047;-76
2024/04/09 01:53:35;;;;;;;9.27;6.47;;;;;;;16.98;86.80;100290.75;5092977;28;20047;-77
2024/04/09 01:56:39;;;;;;;9.27;6.30;;;;;;;16.94;87.30;100288.56;5093096;28;20490;-76
2024/04/09 01:59:43;;;;;;;13.50;6.70;;;;;;;17.01;87.10;100281.41;5096730;28;20047;-77
2024/04/09 02:02:52;;;;;;;10.10;7.20;;;;;;;16.87;87.57;100293.84;5096821;28;20043;-77
2024/04/09 02:05:56;;;;;;;11.95;7.38;;;;;;;16.91;87.99;100306.03;5084164;28;20036;-77
2024/04/09 02:09:00;;;;;;;8.02;6.85;;;;;;;16.95;87.54;100310.09;5096815;28;20051;-76
2024/04/09 02:12:05;;;;;;;11.60;8.00;;;;;;;16.87;87.34;100302.81;5084092;28;20043;-76
2024/04/09 02:15:12;;;;;;;11.60;6.88;;;;;;;16.77;87.40;100309.47;5096379;28;20059;-78
2024/04/09 02:18:17;;;;;;;7.82;6.05;;;;;;;16.77;87.08;100298.63;5096420;28;20475;-77
2024/04/09 02:21:22;;;;;;;10.00;6.40;;;;;;;16.61;86.86;100298.69;5096601;28;20047;-78
2024/04/09 02:24:27;;;;;;;12.82;6.30;;;;;;;16.55;87.25;100310.22;5096404;28;20044;-76
2024/04/09 02:27:32;;;;;;;8.52;5.55;;;;;;;16.76;85.92;100302.38;5096026;28;20455;-77
2024/04/09 02:30:37;;;;;;;10.30;6.15;;;;;;;16.61;85.19;100307.69;5096214;28;20051;-77
2024/04/09 02:33:42;;;;;;;11.32;5.45;;;;;;;16.54;85.81;100303.94;5096067;28;20055;-77
2024/04/09 02:36:47;;;;;;;9.10;6.43;;;;;;;16.49;85.74;100300.06;5095909;28;20368;-77
2024/04/09 02:39:51;;;;;;;10.85;6.55;;;;;;;16.44;86.42;100297.03;5095690;28;20055;-77
2024/04/09 02:42:56;;;;;;;10.60;6.88;;;;;;;16.44;86.92;100291.63;5095443;28;20052;-77
2024/04/09 02:46:01;;;;;;;11.27;7.97;;;;;;;16.38;86.73;100292.28;5095572;28;20047;-76
2024/04/09 02:49:06;;;;;;;13.27;8.88;;;;;;;16.36;87.38;100291.63;5095764;28;20055;-77
2024/04/09 02:52:11;;;;;;;12.32;8.75;;;;;;;16.41;87.77;100291.94;5095846;28;20051;-78
2024/04/09 02:55:17;;;;;;;11.77;9.90;;;;;;;16.47;87.64;100286.66;5095770;28;20379;-76
2024/04/09 02:58:21;;;;;;;16.75;10.07;;;;;;;16.41;88.08;100270.28;5082888;28;20047;-78
2024/04/09 03:01:26;;;;;;;12.70;11.38;;;;;;;16.39;87.36;100288.56;5095739;28;20048;-77
2024/04/09 03:04:30;;;;;;;23.67;15.50;;;;;;;16.26;88.33;100286.41;5095446;28;20458;-77
2024/04/09 03:07:35;;;;;;;17.80;15.95;;;;;;;16.13;88.42;100289.63;5083103;28;20044;-77
2024/04/09 03:10:41;;;;;;;20.38;13.85;;;;;;;16.01;89.28;100284.75;5094713;28;20044;-76
2024/04/09 03:13:47;;;;;;;13.85;12.35;;;;;;;16.07;89.02;100284.06;5095297;28;20048;-76
2024/04/09 03:16:51;;;;;;;17.35;11.68;;;;;;;15.81;89.58;100281.56;5082854;28;20039;-77
2024/04/09 03:19:55;;;;;;;14.40;10.57;;;;;;;15.91;89.37;100279.50;5095307;28;20044;-78
2024/04/09 03:23:00;;;;;;;12.85;7.55;;;;;;;15.78;89.53;100275.63;5095257;28;20048;-75
2024/04/09 03:26:08;;;;;;;8.48;6.38;;;;;;;15.93;88.12;100282.03;5082759;28;20047;-75
2024/04/09 03:29:13;;;;;;;10.23;6.03;;;;;;;15.95;87.80;100277.31;5095157;28;20059;-77
2024/04/09 03:32:18;;;;;;;7.18;6.22;;;;;;;16.05;87.23;100265.28;5082683;28;20044;-77
2024/04/09 03:35:22;;;;;;;10.40;6.43;;;;;;;16.04;86.71;100268.16;5094769;28;20054;-78
2024/04/09 03:38:27;;;;;;;11.02;5.60;;;;;;;16.17;86.62;100263.06;5094994;28;20498;-76
2024/04/09 03:41:32;;;;;;;9.77;5.65;;;;;;;16.34;84.92;100269.28;5095037;28;20055;-77
2024/04/09 03:44:37;;;;;;;11.30;5.18;;;;;;;16.17;84.90;100263.06;5094893;28;20041;-75
2024/04/09 03:47:41;;;;;;;8.05;5.22;;;;;;;16.06;85.58;100258.00;5094551;28;20047;-75
2024/04/09 03:50:47;;;;;;;10.60;5.65;;;;;;;16.51;83.51;100244.69;5094675;28;20043;-79
2024/04/09 03:53:51;;;;;;;9.45;4.95;;;;;;;16.06;84.68;100245.31;5094593;28;20051;-77
2024/04/09 03:56:56;;;;;;;10.13;4.68;;;;;;;15.81;84.56;100251.78;5090721;28;20199;-77
2024/04/09 04:00:00;;;;;;;7.93;4.40;;;;;;;15.55;84.90;100257.34;5074318;28;20051;-76
2024/04/09 04:03:05;;;;;;;6.07;4.32;;;;;;;15.96;83.71;100274.44;5073841;28;20060;-75
2024/04/09 04:06:10;;;;;;;8.15;3.95;;;;;;;16.25;82.65;100269.31;5074330;28;20052;-75
2024/04/09 04:09:15;;;;;;;13.18;4.60;;;;;;;15.98;82.77;100250.75;5074218;28;20055;-78
2024/04/09 04:12:19;;;;;;;9.25;4.70;;;;;;;15.58;84.86;100234.53;5074180;28;20049;-75
2024/04/09 04:15:24;;;;;;;8.40;4.57;;;;;;;15.82;84.09;100233.69;5073740;28;20051;-75
2024/04/09 04:18:29;;;;;;;10.30;4.25;;;;;;;15.97;83.63;100257.16;5073947;28;20096;-77
2024/04/09 04:21:34;;;;;;;9.77;4.47;;;;;;;16.11;83.45;100258.34;5072695;28;20048;-76
2024/04/09 04:24:38;;;;;;;8.02;4.78;;;;;;;16.03;83.61;100248.34;5050155;28;20051;-76
2024/04/09 04:27:44;;;;;;;8.75;5.13;;;;;;;16.14;83.40;100247.16;5073794;28;20055;-76
2024/04/09 04:30:48;;;;;;;7.57;5.00;;;;;;;15.96;84.63;100251.94;5073649;28;20055;-76
2024/04/09 04:33:54;;;;;;;9.40;5.70;;;;;;;15.88;85.71;100247.38;5061462;28;20158;-75
2024/04/09 04:36:58;;;;;;;9.68;5.40;;;;;;;16.14;84.79;100255.28;5061229;28;20059;-75
2024/04/09 04:40:03;;;;;;;9.60;5.68;;;;;;;16.11;84.64;100248.34;5073708;28;20059;-75
2024/04/09 04:43:08;;;;;;;12.25;6.18;;;;;;;15.94;85.25;100248.56;5073870;28;20052;-76
2024/04/09 04:46:13;;;;;;;12.55;6.80;;;;;;;15.98;85.53;100231.78;5060787;28;20060;-74
2024/04/09 04:49:17;;;;;;;12.65;6.70;;;;;;;16.17;85.38;100231.41;5073360;28;20467;-77
2024/04/09 04:52:22;;;;;;;12.82;7.03;;;;;;;16.19;84.74;100244.78;5073685;28;20052;-77
2024/04/09 04:55:27;;;;;;;10.88;7.05;;;;;;;15.98;86.32;100225.53;5073444;28;20045;-74
2024/04/09 04:58:31;;;;;;;15.27;7.07;;;;;;;16.12;86.44;100222.13;5060574;28;20399;-77
2024/04/09 05:01:36;;;;;;;8.50;6.40;;;;;;;16.35;85.06;100220.34;5073244;28;20055;-75
2024/04/09 05:04:41;;;;;;;9.35;7.15;;;;;;;16.52;84.30;100234.69;5073305;28;20047;-74
2024/04/09 05:07:48;;;;;;;12.38;7.00;;;;;;;16.60;84.00;100240.09;5073222;28;20048;-76
2024/04/09 05:10:53;;;;;;;11.18;8.05;;;;;;;16.81;83.26;100240.34;5060665;28;20051;-76
2024/04/09 05:13:57;;;;;;;13.10;7.60;;;;;;;17.09;82.85;100229.81;5060707;28;20506;-76
2024/04/09 05:17:02;;;;;;;10.80;7.43;;;;;;;17.36;80.92;100232.84;5072714;28;20041;-77
2024/04/09 05:20:10;;;;;;;15.15;8.95;;;;;;;17.50;80.16;100232.06;5073310;28;20043;-77
2024/04/09 05:23:15;;;;;;;13.45;8.50;;;;;;;17.48;80.55;100239.53;5073123;28;20055;-78
2024/04/09 05:26:19;;;;;;;11.63;8.55;;;;;;;17.62;80.26;100239.81;5073102;28;20110;-74
2024/04/09 05:29:24;;;;;;;17.30;11.60;;;;;;;17.53;80.51;100237.16;5072835;28;20044;-76
2024/04/09 05:32:29;;;;;;;18.63;12.10;;;;;;;17.13;82.37;100259.16;5072998;28;20380;-76
2024/04/09 05:35:34;;;;;;;13.68;11.77;;;;;;;17.28;81.65;100262.75;5077009;28;20045;-76
2024/04/09 05:38:40;;;;;;;13.57;10.18;;;;;;;17.31;81.60;100265.09;5076975;28;20045;-78
2024/04/09 05:41:45;;;;;;;14.05;9.20;;;;;;;17.60;80.64;100283.44;5076625;28;20036;-76
2024/04/09 05:44:49;;;;;;;15.75;7.88;;;;;;;17.90;78.76;100273.50;5076987;28;20047;-77
2024/04/09 05:47:54;;;;;;;10.98;7.75;;;;;;;18.06;78.24;100278.78;5054752;28;20495;-76
2024/04/09 05:50:59;;;;;;;13.10;9.50;;;;;;;17.80;78.53;100281.06;5054749;28;20136;-76
2024/04/09 05:54:03;;;;;;;12.95;8.50;;;;;;;17.53;79.80;100296.88;5054347;28;20057;-74
2024/04/09 05:57:08;;;;;;;12.48;8.52;;;;;;;17.35;80.65;100298.16;5054389;28;20045;-77
2024/04/09 06:00:13;;;;;;;20.65;10.07;;;;;;;17.53;80.70;100310.44;5054393;28;20144;-77
2024/04/09 06:03:31;;;;;;;10.10;7.78;;;;;;;17.52;80.86;100302.50;5031504;28;20061;-76
2024/04/09 06:06:36;;;;;;;16.70;7.50;;;;;;;17.41;81.04;100306.41;5023444;28;20048;-78
2024/04/09 06:09:41;;;;;;;9.60;7.13;;;;;;;17.66;79.49;100311.72;5034176;28;20052;-75
2024/04/09 06:12:46;;;;;;;11.75;7.25;;;;;;;17.85;79.34;100305.81;5023186;28;20056;-78
2024/04/09 06:15:50;;;;;;;9.35;7.22;;;;;;;17.73;79.54;100313.50;5033959;28;20068;-77
2024/04/09 06:18:55;;;;;;;18.83;8.60;;;;;;;17.76;79.85;100301.44;5034119;28;20140;-77
2024/04/09 06:22:03;;;;;;;14.45;8.63;;;;;;;17.75;79.80;100302.50;5034132;28;20049;-77
2024/04/09 06:25:08;;;;;;;12.27;8.73;;;;;;;18.08;78.46;100298.44;5036460;28;20052;-77
2024/04/09 06:28:13;;;;;;;12.23;8.95;;;;;;;18.04;77.89;100294.44;5032380;28;20037;-73
2024/04/09 06:31:17;;;;;;;15.07;10.02;;;;;;;17.74;79.66;100293.50;5043848;28;20092;-73
2024/04/09 06:34:22;;;;;;;15.38;10.45;;;;;;;17.97;79.27;100285.31;5056059;28;20045;-75
2024/04/09 06:37:27;;;;;;;16.10;12.07;;;;;;;18.09;78.73;100273.84;5043782;28;20037;-75
2024/04/09 06:40:36;;;;;;;20.15;13.38;;;;;;;18.06;78.67;100276.06;5055857;28;20140;-75
2024/04/09 06:43:41;;;;;;;25.17;18.15;;;;;;;18.16;79.34;100263.06;5055868;28;20388;-76
2024/04/09 06:46:45;;;;;;;30.45;15.93;;;;;;;18.17;78.99;100262.88;5042900;28;20049;-77
2024/04/09 06:49:51;;;;;;;23.90;18.88;;;;;;;17.93;80.57;100276.69;5055355;28;20044;-76
2024/04/09 06:52:55;;;;;;;25.48;22.08;;;;;;;18.00;80.31;100272.22;5055293;28;20403;-75
2024/04/09 06:55:59;;;;;;;28.33;23.95;;;;;;;18.10;80.18;100274.66;5043119;28;20067;-75
2024/04/09 06:59:04;;;;;;;26.80;22.02;;;;;;;18.13;79.70;100285.16;5042875;28;20049;-77
2024/04/09 07:02:10;;;;;;;27.58;22.50;;;;;;;18.25;79.60;100269.25;5055690;28;20045;-76
2024/04/09 07:05:15;;;;;;;29.55;23.10;;;;;;;18.12;79.88;100270.72;5055448;28;20460;-76
2024/04/09 07:08:20;;;;;;;27.40;21.70;;;;;;;18.20;80.12;100273.38;5055110;28;20509;-78
2024/04/09 07:11:25;;;;;;;25.58;21.02;;;;;;;18.38;80.41;100285.75;5055248;28;20045;-76
2024/04/09 07:14:30;;;;;;;27.40;22.52;;;;;;;18.27;80.17;100299.81;5055187;28;20049;-75
2024/04/09 07:17:34;;;;;;;26.58;22.92;;;;;;;18.27;80.51;100287.03;5042939;28;20049;-75
2024/04/09 07:20:39;;;;;;;31.77;23.42;;;;;;;18.31;80.46;100276.66;5055024;28;20041;-75
2024/04/09 07:23:44;;;;;;;27.10;23.42;;;;;;;18.45;80.48;100268.50;5055296;28;20432;-74
2024/04/09 07:26:49;;;;;;;35.65;27.88;;;;;;;18.88;78.75;100276.88;5055416;28;20048;-77
2024/04/09 07:29:55;;;;;;;36.92;28.55;;;;;;;18.74;79.24;100271.25;5051919;28;20048;-75
2024/04/09 07:33:04;;;;;;;37.95;29.63;;;;;;;18.40;79.71;100270.09;5062050;28;20041;-76
2024/04/09 07:36:09;;;;;;;34.83;26.58;;;;;;;18.02;82.61;100269.31;5074208;28;20048;-77
2024/04/09 07:39:14;;;;;;;33.28;25.80;;;;;;;18.17;82.14;100257.44;5052054;28;20037;-76
2024/04/09 07:42:20;;;;;;;36.97;30.75;;;;;;;18.02;82.64;100275.56;5040881;28;20037;-75
2024/04/09 07:45:26;;;;;;;39.33;31.55;;;;;;;18.03;82.27;100281.84;5053020;28;20041;-75
2024/04/09 07:48:35;;;;;;;48.53;32.35;;;;;;;18.12;82.38;100294.34;5060070;28;20044;-74
2024/04/09 07:51:45;;;;;;;;;;;;;;;18.09;82.79;100305.59;5053847;28;20069;-77
2024/04/09 07:54:55;;;;;;;52.45;37.03;;;;;;;18.07;83.57;100310.38;5053308;28;19917;-76
2024/04/09 07:58:02;;;;;;;55.17;37.10;;;;;;;18.17;83.90;100310.94;5053525;28;20456;-75
2024/04/09 08:01:07;;;;;;;63.55;39.28;;;;;;;18.41;82.87;100304.41;5053572;28;20048;-75
2024/04/09 08:04:11;;;;;;;75.30;45.15;;;;;;;18.36;83.71;100321.28;5041513;28;20041;-75
2024/04/09 08:07:16;;;;;;;61.90;40.22;;;;;;;18.56;82.76;100306.16;5053668;28;20045;-74
2024/04/09 08:10:22;;;;;;;64.30;41.38;;;;;;;18.55;82.01;100300.88;5059584;28;20037;-77
2024/04/09 08:13:26;;;;;;;60.40;37.33;;;;;;;18.39;83.01;100310.03;5053824;28;20045;-78
2024/04/09 08:16:31;;;;;;;54.30;38.53;;;;;;;18.37;82.83;100314.81;5058989;28;20480;-79
2024/04/09 08:19:35;;;;;;;57.20;37.78;;;;;;;18.62;83.12;100315.41;5061076;28;20044;-77
2024/04/09 08:22:40;;;;;;;62.53;37.50;;;;;;;18.33;84.07;100310.78;5072390;28;20040;-77
2024/04/09 08:25:45;;;;;;;66.50;38.90;;;;;;;18.17;85.14;100314.50;5072395;28;20045;-77
2024/04/09 08:28:51;;;;;;;62.33;36.70;;;;;;;18.58;84.05;100316.81;5072767;28;20044;-76
2024/04/09 08:31:55;;;;;;;55.95;36.58;;;;;;;18.69;83.91;100305.47;5072334;28;20041;-76
2024/04/09 08:35:01;;;;;;;55.42;36.08;;;;;;;18.59;85.12;100310.38;5072735;28;20436;-78
2024/04/09 08:38:05;;;;;;;45.53;29.88;;;;;;;18.42;85.92;100289.81;5072678;28;20483;-78
2024/04/09 08:41:10;;;;;;;42.80;30.10;;;;;;;18.01;87.43;100278.50;5065783;28;20036;-78
2024/04/09 08:44:17;;;;;;;46.38;29.92;;;;;;;17.83;89.75;100275.25;5056477;28;20434;-78
2024/04/09 08:47:25;;;;;;;52.20;31.00;;;;;;;18.28;88.93;100282.47;5052270;28;20049;-76
2024/04/09 08:50:32;;;;;;;49.20;31.48;;;;;;;18.26;88.75;100281.81;5052627;28;20045;-78
2024/04/09 08:53:38;;;;;;;47.13;29.42;;;;;;;18.29;88.35;100300.47;5052554;28;20041;-77
2024/04/09 08:56:44;;;;;;;46.08;30.25;;;;;;;18.42;88.21;100297.97;5059666;28;20036;-78
2024/04/09 08:59:48;;;;;;;52.15;31.30;;;;;;;18.33;88.86;100288.19;5052598;28;20044;-78
2024/04/09 09:02:53;;;;;;;52.45;32.53;;;;;;;18.57;88.42;100287.94;5039712;28;20041;-77
2024/04/09 09:06:04;;;;;;;52.17;31.48;;;;;;;18.22;90.10;100278.59;5051861;28;20041;-78
2024/04/09 09:09:21;;;;;;;57.10;35.15;;;;;;;18.24;91.15;100306.47;5051841;28;20041;-78
2024/04/09 09:12:28;;;;;;;61.30;32.75;;;;;;;18.15;91.08;100299.41;5057229;28;20044;-78
2024/04/09 09:15:33;;;;;;;64.32;36.10;;;;;;;18.11;91.24;100308.97;5060306;28;20044;-78
2024/04/09 09:18:38;;;;;;;58.75;34.58;;;;;;;18.61;89.15;100311.03;5072453;28;20037;-78
2024/04/09 09:21:43;;;;;;;60.65;35.17;;;;;;;18.29;90.31;100316.78;5048984;28;20041;-78
2024/04/09 09:24:56;;;;;;;65.65;37.63;;;;;;;18.32;90.51;100316.41;5061995;28;20037;-77
2024/04/09 09:28:10;;;;;;;;;;;;;;;18.45;90.14;100308.44;5052863;28;20049;-78
2024/04/09 09:31:18;;;;;;;59.63;34.33;;;;;;;18.54;89.51;100307.38;5052771;28;20003;-77
2024/04/09 09:34:28;;;;;;;58.67;33.90;;;;;;;18.64;88.91;100292.44;5038007;28;20045;-77
2024/04/09 09:37:34;;;;;;;61.20;33.90;;;;;;;18.71;88.26;100290.66;5052192;28;20041;-78
2024/04/09 09:40:39;;;;;;;56.42;32.88;;;;;;;19.11;87.20;100292.00;5052145;28;20041;-75
2024/04/09 09:43:45;;;;;;;45.60;29.98;;;;;;;19.34;86.19;100300.03;5059375;28;20403;-78
2024/04/09 09:46:57;;;;;;;46.42;30.33;;;;;;;19.49;85.10;100300.84;5059783;28;20472;-78
2024/04/09 09:50:02;;;;;;;46.17;30.40;;;;;;;19.63;83.47;100299.94;5070798;28;20045;-79
2024/04/09 09:53:11;;;;;;;44.28;30.05;;;;;;;19.83;82.37;100295.53;5059270;28;20464;-77
2024/04/09 09:56:17;;;;;;;52.45;30.45;;;;;;;19.89;81.60;100291.19;5072087;28;20467;-79
2024/04/09 09:59:24;;;;;;;44.97;28.42;;;;;;;20.27;80.92;100289.03;5070858;28;20041;-78
2024/04/09 10:02:31;;;;;;;47.83;28.88;;;;;;;20.37;80.66;100294.97;5072011;28;20041;-79
2024/04/09 10:05:38;;;;;;;45.20;28.88;;;;;;;20.21;81.39;100292.50;5071538;28;20376;-78
2024/04/09 10:08:42;;;;;;;49.35;30.63;;;;;;;19.95;82.64;100288.50;5058256;28;20391;-77
2024/04/09 10:11:50;;;;;;;53.95;30.30;;;;;;;19.75;83.40;100279.31;5072721;28;20033;-77
2024/04/09 10:15:08;;;;;;;50.83;31.00;;;;;;;20.18;82.57;100293.75;5038654;28;20045;-77
2024/04/09 10:18:27;;;;;;;50.55;29.75;;;;;;;20.39;80.56;100301.06;5040172;28;20049;-77
2024/04/09 10:21:32;;;;;;;45.20;29.98;;;;;;;20.52;79.72;100298.41;5054968;28;20037;-78
2024/04/09 10:24:38;;;;;;;46.22;28.63;;;;;;;20.89;79.11;100287.06;5059730;28;20052;-76
2024/04/09 10:27:44;;;;;;;46.83;29.55;;;;;;;21.06;78.79;100287.63;5075182;28;20041;-77
2024/04/09 10:30:49;;;;;;;44.85;28.77;;;;;;;21.33;77.66;100281.22;5075061;28;20407;-76
2024/04/09 10:33:58;;;;;;;44.78;27.75;;;;;;;21.38;77.51;100282.25;5075484;28;20036;-75
2024/04/09 10:37:04;;;;;;;45.17;29.27;;;;;;;21.92;75.93;100286.81;5065628;28;20045;-76
2024/04/09 10:40:10;;;;;;;40.08;27.17;;;;;;;21.98;74.03;100269.53;5050896;28;20037;-77
2024/04/09 10:43:06;;;;;;;49.60;30.75;;;;;;;21.53;77.26;100265.69;5062956;28;20048;-77
2024/04/09 10:46:11;;;;;;;55.13;33.67;;;;;;;20.73;79.89;100277.38;5050915;28;20040;-77
2024/04/09 10:49:17;;;;;;;48.55;31.40;;;;;;;20.39;81.50;100293.75;5061695;28;20041;-78
2024/04/09 10:52:22;;;;;;;49.00;32.53;;;;;;;20.41;81.50;100283.47;5064626;28;20044;-77
2024/04/09 10:55:28;;;;;;;49.47;31.92;;;;;;;20.42;82.14;100270.66;5062655;28;20045;-79
2024/04/09 10:58:37;;;;;;;51.20;32.97;;;;;;;20.76;81.61;100262.47;5061896;28;20044;-79
2024/04/09 11:01:42;;;;;;;50.78;32.22;;;;;;;20.88;79.69;100252.66;5061272;28;20033;-80
2024/04/09 11:04:47;;;;;;;51.45;33.30;;;;;;;20.99;79.49;100245.75;5062453;28;20476;-78
2024/04/09 11:07:52;;;;;;;49.28;30.92;;;;;;;21.32;78.11;100250.31;5063011;28;20045;-76
2024/04/09 11:10:59;;;;;;;44.08;29.55;;;;;;;21.45;76.72;100249.50;5063135;28;20396;-78
2024/04/09 11:14:04;;;;;;;46.25;30.35;;;;;;;21.40;76.47;100239.19;5065189;28;20195;-78
2024/04/09 11:17:18;;;;;;;36.33;27.27;;;;;;;21.40;76.64;100241.09;5065356;28;20036;-80
2024/04/09 11:20:22;;;;;;;;;;;;;;;21.34;77.08;100215.44;5055427;28;20045;-76
2024/04/09 11:23:28;;;;;;;39.00;28.27;;;;;;;21.18;77.75;100198.63;5054020;28;19917;-78
2024/04/09 11:26:32;;;;;;;37.75;25.52;;;;;;;21.13;78.57;100191.03;5054417;28;20060;-77
2024/04/09 11:29:46;;;;;;;38.88;26.95;;;;;;;20.80;80.04;100172.88;5055153;28;20040;-79
2024/04/09 11:32:55;;;;;;;38.05;25.45;;;;;;;20.64;80.68;100160.44;5055547;28;20045;-80
2024/04/09 11:36:00;;;;;;;32.60;25.17;;;;;;;21.05;80.74;100158.50;5054497;28;20053;-76
2024/04/09 11:39:07;;;;;;;31.55;22.98;;;;;;;21.39;78.67;100179.31;5054396;28;20045;-79
2024/04/09 11:42:12;;;;;;;28.42;22.27;;;;;;;21.54;76.96;100176.38;5054352;28;20136;-77
2024/04/09 11:45:28;;;;;;;35.30;22.85;;;;;;;21.23;78.15;100174.28;5054385;28;20045;-77
2024/04/09 11:48:33;;;;;;;31.55;22.27;;;;;;;21.32;78.75;100179.34;5054419;28;20049;-78
2024/04/09 11:51:39;;;;;;;30.27;20.77;;;;;;;21.62;77.85;100182.50;5041929;28;20480;-78
2024/04/09 11:54:46;;;;;;;29.50;22.92;;;;;;;21.94;77.05;100195.34;5054426;28;20033;-77
2024/04/09 11:57:51;;;;;;;28.40;21.95;;;;;;;22.12;75.88;100207.50;5053797;28;20040;-77
2024/04/09 12:00:56;;;;;;;29.98;20.42;;;;;;;22.19;75.39;100220.13;5054237;28;20441;-78
2024/04/09 12:04:01;;;;;;;25.15;19.90;;;;;;;22.73;73.85;100217.06;5054307;28;20392;-78
2024/04/09 12:07:09;;;;;;;26.30;20.02;;;;;;;22.94;73.36;100208.53;5054054;28;20048;-76
2024/04/09 12:10:14;;;;;;;25.05;18.85;;;;;;;23.26;71.65;100195.69;5053813;28;20396;-78
2024/04/09 12:13:18;;;;;;;30.30;20.13;;;;;;;23.41;72.02;100198.16;5053567;28;20041;-77
2024/04/09 12:16:22;;;;;;;26.77;20.25;;;;;;;23.56;70.70;100205.00;5041676;28;20053;-76
2024/04/09 12:19:27;;;;;;;26.85;20.92;;;;;;;23.49;70.60;100201.47;5060882;28;20491;-76
2024/04/09 12:22:32;;;;;;;24.20;20.45;;;;;;;23.28;71.33;100210.03;5059909;28;20044;-76
2024/04/09 12:25:37;;;;;;;24.38;19.63;;;;;;;23.41;71.97;100212.69;5073098;28;20399;-76
2024/04/09 12:28:41;;;;;;;26.42;20.60;;;;;;;23.62;70.82;100206.03;5072877;28;20052;-77
2024/04/09 12:31:46;;;;;;;24.23;18.77;;;;;;;23.56;70.81;100196.78;5060824;28;20056;-77
2024/04/09 12:34:52;;;;;;;25.65;19.75;;;;;;;23.26;69.87;100192.97;5073081;28;20045;-78
2024/04/09 12:37:57;;;;;;;24.63;18.70;;;;;;;23.21;70.81;100187.31;5073016;28;20395;-76
2024/04/09 12:41:01;;;;;;;25.13;18.25;;;;;;;23.14;71.91;100181.03;5052662;28;20049;-77
2024/04/09 12:44:06;;;;;;;26.35;20.00;;;;;;;23.23;71.44;100187.94;5052241;28;20049;-79
2024/04/09 12:47:11;;;;;;;27.25;20.60;;;;;;;23.13;72.08;100195.81;5052157;28;20460;-76
2024/04/09 12:50:16;;;;;;;24.63;19.80;;;;;;;23.24;71.76;100186.88;5052225;28;20049;-79
2024/04/09 12:53:20;;;;;;;24.95;19.83;;;;;;;23.42;71.01;100188.88;5052806;28;20044;-80
2024/04/09 12:56:25;;;;;;;24.23;17.63;;;;;;;23.63;71.16;100197.56;5051949;28;20048;-79
2024/04/09 12:59:34;;;;;;;26.98;18.38;;;;;;;23.96;69.80;100194.56;5052755;28;20043;-80
2024/04/09 13:02:39;;;;;;;23.58;19.00;;;;;;;23.82;70.52;100198.47;5051840;28;20052;-77
2024/04/09 13:05:43;;;;;;;19.33;16.15;;;;;;;23.92;70.60;100187.84;5051868;28;20484;-79
2024/04/09 13:08:50;;;;;;;22.90;19.35;;;;;;;23.81;71.15;100194.06;5053057;28;20044;-78
2024/04/09 13:11:55;;;;;;;24.55;20.38;;;;;;;23.72;70.62;100188.03;5055684;28;20041;-79
2024/04/09 13:15:00;;;;;;;19.50;17.40;;;;;;;23.64;70.65;100190.19;5052885;28;20060;-79
2024/04/09 13:18:05;;;;;;;23.90;19.30;;;;;;;23.71;70.80;100189.06;5052491;28;20041;-78
2024/04/09 13:21:09;;;;;;;23.35;18.90;;;;;;;23.68;70.51;100196.91;5052611;28;20041;-78
2024/04/09 13:24:14;;;;;;;22.92;19.20;;;;;;;23.72;69.88;100179.81;5052905;28;20045;-79
2024/04/09 13:27:19;;;;;;;24.00;18.00;;;;;;;23.77;69.80;100177.22;5052807;28;20041;-79
2024/04/09 13:30:24;;;;;;;23.00;18.80;;;;;;;23.63;69.48;100183.03;5040351;28;20029;-80
2024/04/09 13:33:31;;;;;;;27.42;19.17;;;;;;;23.58;70.26;100183.69;5040601;28;20061;-78
2024/04/09 13:36:36;;;;;;;19.35;16.88;;;;;;;23.57;69.91;100178.44;5052168;28;20057;-78
2024/04/09 13:39:40;;;;;;;23.30;18.55;;;;;;;23.65;70.30;100173.50;5040111;28;20045;-80
2024/04/09 13:42:46;;;;;;;24.02;17.38;;;;;;;23.68;70.51;100167.59;5052248;28;20469;-78
2024/04/09 13:45:51;;;;;;;22.88;17.15;;;;;;;23.82;70.52;100155.47;5052391;28;20053;-79
2024/04/09 13:48:56;;;;;;;24.42;18.58;;;;;;;23.74;71.11;100165.88;5039955;28;20488;-78
2024/04/09 13:52:00;;;;;;;23.65;18.55;;;;;;;23.86;70.26;100164.06;5040274;28;20041;-79
2024/04/09 13:55:08;;;;;;;19.17;16.52;;;;;;;23.87;70.73;100169.31;5054628;28;20473;-78
2024/04/09 13:58:13;;;;;;;20.33;17.90;;;;;;;24.09;71.15;100180.75;5055833;28;20420;-78
2024/04/09 14:01:17;;;;;;;30.23;20.15;;;;;;;24.11;70.25;100188.75;5056106;28;20041;-79
2024/04/09 14:04:22;;;;;;;23.55;17.80;;;;;;;24.33;70.42;100189.97;5056117;28;20044;-80
2024/04/09 14:07:26;;;;;;;22.55;18.73;;;;;;;24.31;69.96;100197.63;5043429;28;20033;-79
2024/04/09 14:10:32;;;;;;;21.48;16.00;;;;;;;24.48;68.71;100183.06;5055493;28;20037;-78